PWSweather.com
Personal Weather Stations
Station Observations
INORDPAS37
Bondues, BonduesFR 59910

BonduesBonduesFR 59910

Lat: 50.7, Lon: 3.09

Elevation: 102

Station Type: Netatmo

http://bondues.meteoamikuze.com

High Low Average
Temperature 32.9°F0.5°F 27.1°F-2.7°F 31.2°F-0.4°F
Dew Point 23.4°F-4.8°F 16.7°F-8.5°F 20.3°F-6.5°F
Winds 9.8 mph -15.8 mph - 0.7 mph 1.1 mph 4.6 mph 7.4 mph
Wind Gusts 22.4 mph36.0 mph 1.3 mph2.1 mph 9.2 mph14.8 mph
Humidity 75% 64% 69%
Pressure 30.30 in1026.10 in 29.82 in1009.80 in -
Precipitation 0.14 in3.60 in - -
Hour Temp Dew Point Humidity Winds Wind Gusts Pressure Precip Precip Rate Daily Precip Total
12:04 AM 32.5°F0.3°C 22.1°F-5.5°C 71% 0.7 mph SSW1.1 kmh SSW 1.8 mph2.9 kmh 30.30 in1026.1 mb 0.00 in0.0 mm 0.00 in0.0 mm 0.00 in0.0 mm
12:23 AM 32.5°F0.3°C 22.1°F-5.5°C 71% 0.7 mph S1.1 kmh S 1.8 mph2.9 kmh 30.29 in1025.7 mb 0.00 in0.0 mm 0.00 in0.0 mm 0.00 in0.0 mm
12:44 AM 32.4°F0.2°C 22.1°F-5.5°C 71% 0.7 mph E1.1 kmh E 1.3 mph2.1 kmh 30.29 in1025.7 mb 0.00 in0.0 mm 0.00 in0.0 mm 0.00 in0.0 mm
01:04 AM 32.2°F0.1°C 21.6°F-5.8°C 70% 0.7 mph SSW1.1 kmh SSW 1.8 mph2.9 kmh 30.28 in1025.4 mb 0.00 in0.0 mm 0.00 in0.0 mm 0.00 in0.0 mm
01:26 AM 32.0°F0.0°C 21.7°F-5.7°C 71% 0.7 mph SE1.1 kmh SE 1.3 mph2.1 kmh 30.28 in1025.4 mb 0.00 in0.0 mm 0.00 in0.0 mm 0.00 in0.0 mm
01:45 AM 32.0°F0.0°C 21.7°F-5.7°C 71% 1.3 mph SSE2.1 kmh SSE 2.5 mph4.0 kmh 30.27 in1025.1 mb 0.00 in0.0 mm 0.00 in0.0 mm 0.00 in0.0 mm
02:06 AM 32.0°F0.0°C 21.7°F-5.7°C 71% 1.8 mph S2.9 kmh S 4.9 mph7.9 kmh 30.28 in1025.4 mb 0.00 in0.0 mm 0.00 in0.0 mm 0.00 in0.0 mm
02:24 AM 32.4°F0.2°C 21.7°F-5.7°C 70% 2.5 mph S4.0 kmh S 4.3 mph6.9 kmh 30.28 in1025.4 mb 0.00 in0.0 mm 0.00 in0.0 mm 0.00 in0.0 mm
02:44 AM 32.2°F0.1°C 21.6°F-5.8°C 70% 1.3 mph S2.1 kmh S 2.5 mph4.0 kmh 30.28 in1025.4 mb 0.00 in0.0 mm 0.00 in0.0 mm 0.00 in0.0 mm
03:04 AM 31.8°F-0.1°C 21.2°F-6.0°C 70% 1.8 mph S2.9 kmh S 3.1 mph5.0 kmh 30.28 in1025.4 mb 0.00 in0.0 mm 0.00 in0.0 mm 0.00 in0.0 mm
03:24 AM 31.6°F-0.2°C 21.0°F-6.1°C 70% 1.3 mph SSE2.1 kmh SSE 2.5 mph4.0 kmh 30.28 in1025.4 mb 0.00 in0.0 mm 0.00 in0.0 mm 0.00 in0.0 mm
03:42 AM 31.3°F-0.4°C 20.7°F-6.3°C 70% 1.3 mph SSE2.1 kmh SSE 3.1 mph5.0 kmh 30.27 in1025.1 mb 0.00 in0.0 mm 0.00 in0.0 mm 0.00 in0.0 mm
04:00 AM 30.9°F-0.6°C 20.3°F-6.5°C 70% 1.8 mph SSE2.9 kmh SSE 3.1 mph5.0 kmh 30.26 in1024.7 mb 0.00 in0.0 mm 0.00 in0.0 mm 0.00 in0.0 mm
04:19 AM 30.6°F-0.8°C 19.9°F-6.7°C 70% 1.3 mph SSE2.1 kmh SSE 3.1 mph5.0 kmh 30.27 in1025.1 mb 0.00 in0.0 mm 0.00 in0.0 mm 0.00 in0.0 mm
04:40 AM 30.2°F-1.0°C 19.6°F-6.9°C 70% 1.8 mph S2.9 kmh S 3.1 mph5.0 kmh 30.26 in1024.7 mb 0.00 in0.0 mm 0.00 in0.0 mm 0.00 in0.0 mm
05:00 AM 29.8°F-1.2°C 18.9°F-7.3°C 69% 1.8 mph SSE2.9 kmh SSE 3.1 mph5.0 kmh 30.26 in1024.7 mb 0.00 in0.0 mm 0.00 in0.0 mm 0.00 in0.0 mm
05:20 AM 29.1°F-1.6°C 18.1°F-7.7°C 69% 1.8 mph SSE2.9 kmh SSE 3.1 mph5.0 kmh 30.26 in1024.7 mb 0.00 in0.0 mm 0.00 in0.0 mm 0.00 in0.0 mm
05:40 AM 28.8°F-1.8°C 17.8°F-7.9°C 69% 1.8 mph S2.9 kmh S 3.1 mph5.0 kmh 30.26 in1024.7 mb 0.00 in0.0 mm 0.00 in0.0 mm 0.00 in0.0 mm
06:01 AM 28.4°F-2.0°C 17.4°F-8.1°C 69% 1.8 mph S2.9 kmh S 2.5 mph4.0 kmh 30.26 in1024.7 mb 0.00 in0.0 mm 0.00 in0.0 mm 0.00 in0.0 mm
06:21 AM 27.9°F-2.3°C 17.4°F-8.1°C 70% 1.3 mph SE2.1 kmh SE 2.5 mph4.0 kmh 30.26 in1024.7 mb 0.00 in0.0 mm 0.00 in0.0 mm 0.00 in0.0 mm
06:41 AM 27.5°F-2.5°C 17.1°F-8.3°C 70% 1.3 mph SSE2.1 kmh SSE 2.5 mph4.0 kmh 30.25 in1024.4 mb 0.00 in0.0 mm 0.00 in0.0 mm 0.00 in0.0 mm
07:02 AM 27.5°F-2.5°C 17.1°F-8.3°C 70% 1.3 mph S2.1 kmh S 1.8 mph2.9 kmh 30.25 in1024.4 mb 0.00 in0.0 mm 0.00 in0.0 mm 0.00 in0.0 mm
07:21 AM 27.1°F-2.7°C 16.7°F-8.5°C 70% 1.3 mph SSE2.1 kmh SSE 2.5 mph4.0 kmh 30.24 in1024.0 mb 0.00 in0.0 mm 0.00 in0.0 mm 0.00 in0.0 mm
07:42 AM 27.1°F-2.7°C 16.7°F-8.5°C 70% 1.3 mph SE2.1 kmh SE 3.1 mph5.0 kmh 30.24 in1024.0 mb 0.00 in0.0 mm 0.00 in0.0 mm 0.00 in0.0 mm
08:02 AM 27.3°F-2.6°C 16.9°F-8.4°C 70% 1.8 mph SE2.9 kmh SE 4.3 mph6.9 kmh 30.23 in1023.7 mb 0.00 in0.0 mm 0.00 in0.0 mm 0.00 in0.0 mm
08:22 AM 27.5°F-2.5°C 17.1°F-8.3°C 70% 1.8 mph SSE2.9 kmh SSE 3.8 mph6.1 kmh 30.23 in1023.7 mb 0.00 in0.0 mm 0.00 in0.0 mm 0.00 in0.0 mm
08:42 AM 27.7°F-2.4°C 17.2°F-8.2°C 70% 2.5 mph SSE4.0 kmh SSE 4.3 mph6.9 kmh 30.23 in1023.7 mb 0.00 in0.0 mm 0.00 in0.0 mm 0.00 in0.0 mm
09:03 AM 27.9°F-2.3°C 17.4°F-8.1°C 70% 1.3 mph SSE2.1 kmh SSE 3.1 mph5.0 kmh 30.23 in1023.7 mb 0.00 in0.0 mm 0.00 in0.0 mm 0.00 in0.0 mm
09:23 AM 28.2°F-2.1°C 17.6°F-8.0°C 70% 1.8 mph SSE2.9 kmh SSE 3.8 mph6.1 kmh 30.23 in1023.7 mb 0.00 in0.0 mm 0.00 in0.0 mm 0.00 in0.0 mm
09:43 AM 28.6°F-1.9°C 18.0°F-7.8°C 70% 3.8 mph SSE6.1 kmh SSE 6.9 mph11.1 kmh 30.22 in1023.4 mb 0.00 in0.0 mm 0.00 in0.0 mm 0.00 in0.0 mm
10:03 AM 29.1°F-1.6°C 18.5°F-7.5°C 70% 2.5 mph SSE4.0 kmh SSE 7.4 mph11.9 kmh 30.22 in1023.4 mb 0.00 in0.0 mm 0.00 in0.0 mm 0.00 in0.0 mm
10:23 AM 29.7°F-1.3°C 18.7°F-7.4°C 69% 3.1 mph S5.0 kmh S 6.9 mph11.1 kmh 30.22 in1023.4 mb 0.00 in0.0 mm 0.00 in0.0 mm 0.00 in0.0 mm
10:43 AM 30.6°F-0.8°C 19.6°F-6.9°C 69% 3.8 mph S6.1 kmh S 8.1 mph13.0 kmh 30.22 in1023.4 mb 0.00 in0.0 mm 0.00 in0.0 mm 0.00 in0.0 mm
11:03 AM 31.5°F-0.3°C 20.1°F-6.6°C 68% 5.6 mph SSE9.0 kmh SSE 11.9 mph19.2 kmh 30.21 in1023.0 mb 0.00 in0.0 mm 0.00 in0.0 mm 0.00 in0.0 mm
11:23 AM 32.0°F0.0°C 20.7°F-6.3°C 68% 3.8 mph SSE6.1 kmh SSE 9.8 mph15.8 kmh 30.20 in1022.7 mb 0.00 in0.0 mm 0.00 in0.0 mm 0.00 in0.0 mm
11:36 AM 32.4°F0.2°C 20.7°F-6.3°C 67% 5.6 mph SSE9.0 kmh SSE 10.5 mph16.9 kmh 30.20 in1022.7 mb 0.00 in0.0 mm 0.00 in0.0 mm 0.00 in0.0 mm
12:06 PM 32.7°F0.4°C 20.5°F-6.4°C 66% 4.9 mph SSE7.9 kmh SSE 11.2 mph18.0 kmh 30.19 in1022.4 mb 0.00 in0.0 mm 0.00 in0.0 mm 0.00 in0.0 mm
12:26 PM 32.7°F0.4°C 20.5°F-6.4°C 66% 6.9 mph SSE11.1 kmh SSE 13.0 mph20.9 kmh 30.18 in1022.0 mb 0.00 in0.0 mm 0.00 in0.0 mm 0.00 in0.0 mm
12:46 PM 32.7°F0.4°C 20.5°F-6.4°C 66% 4.9 mph SSE7.9 kmh SSE 11.9 mph19.2 kmh 30.17 in1021.7 mb 0.00 in0.0 mm 0.00 in0.0 mm 0.00 in0.0 mm
01:06 PM 32.7°F0.4°C 20.3°F-6.5°C 65% 8.7 mph SSE14.0 kmh SSE 15.0 mph24.1 kmh 30.16 in1021.3 mb 0.00 in0.0 mm 0.00 in0.0 mm 0.00 in0.0 mm
01:26 PM 32.7°F0.4°C 20.3°F-6.5°C 65% 4.9 mph SSE7.9 kmh SSE 11.9 mph19.2 kmh 30.15 in1021.0 mb 0.00 in0.0 mm 0.00 in0.0 mm 0.00 in0.0 mm
01:47 PM 32.7°F0.4°C 20.3°F-6.5°C 65% 4.9 mph SSE7.9 kmh SSE 9.8 mph15.8 kmh 30.14 in1020.7 mb 0.00 in0.0 mm 0.00 in0.0 mm 0.00 in0.0 mm
02:06 PM 32.7°F0.4°C 20.3°F-6.5°C 65% 7.4 mph SSE11.9 kmh SSE 13.6 mph21.9 kmh 30.12 in1020.0 mb 0.00 in0.0 mm 0.00 in0.0 mm 0.00 in0.0 mm
02:27 PM 32.7°F0.4°C 20.3°F-6.5°C 65% 7.4 mph SSE11.9 kmh SSE 13.0 mph20.9 kmh 30.11 in1019.6 mb 0.00 in0.0 mm 0.00 in0.0 mm 0.00 in0.0 mm
02:47 PM 32.5°F0.3°C 20.1°F-6.6°C 65% 4.9 mph SSE7.9 kmh SSE 13.0 mph20.9 kmh 30.10 in1019.3 mb 0.00 in0.0 mm 0.00 in0.0 mm 0.00 in0.0 mm
03:07 PM 32.7°F0.4°C 20.3°F-6.5°C 65% 6.9 mph SSE11.1 kmh SSE 12.5 mph20.1 kmh 30.09 in1019.0 mb 0.00 in0.0 mm 0.00 in0.0 mm 0.00 in0.0 mm
03:27 PM 32.9°F0.5°C 19.9°F-6.7°C 64% 7.4 mph SSE11.9 kmh SSE 13.6 mph21.9 kmh 30.08 in1018.6 mb 0.00 in0.0 mm 0.00 in0.0 mm 0.00 in0.0 mm
03:47 PM 32.9°F0.5°C 19.9°F-6.7°C 64% 8.7 mph SSE14.0 kmh SSE 14.3 mph23.0 kmh 30.07 in1018.3 mb 0.00 in0.0 mm 0.00 in0.0 mm 0.00 in0.0 mm
04:04 PM 32.9°F0.5°C 19.9°F-6.7°C 64% 6.9 mph SSE11.1 kmh SSE 15.0 mph24.1 kmh 30.06 in1017.9 mb 0.00 in0.0 mm 0.00 in0.0 mm 0.00 in0.0 mm
04:25 PM 32.9°F0.5°C 19.9°F-6.7°C 64% 6.9 mph SSE11.1 kmh SSE 21.0 mph33.8 kmh 30.04 in1017.3 mb 0.00 in0.0 mm 0.00 in0.0 mm 0.00 in0.0 mm
04:45 PM 32.7°F0.4°C 19.9°F-6.7°C 64% 9.8 mph SSE15.8 kmh SSE 17.4 mph28.0 kmh 30.03 in1016.9 mb 0.00 in0.0 mm 0.00 in0.0 mm 0.00 in0.0 mm
05:09 PM 32.4°F0.2°C 19.6°F-6.9°C 64% 8.1 mph SSE13.0 kmh SSE 16.1 mph25.9 kmh 30.01 in1016.3 mb 0.00 in0.0 mm 0.00 in0.0 mm 0.00 in0.0 mm
05:21 PM 32.4°F0.2°C 19.9°F-6.7°C 65% 9.4 mph SSE15.1 kmh SSE 15.0 mph24.1 kmh 30.01 in1016.3 mb 0.00 in0.0 mm 0.00 in0.0 mm 0.00 in0.0 mm
05:41 PM 32.0°F0.0°C 19.6°F-6.9°C 65% 7.4 mph SSE11.9 kmh SSE 14.3 mph23.0 kmh 30.00 in1015.9 mb 0.00 in0.0 mm 0.00 in0.0 mm 0.00 in0.0 mm
06:00 PM 31.8°F-0.1°C 20.1°F-6.6°C 67% 8.1 mph SSE13.0 kmh SSE 15.0 mph24.1 kmh 29.99 in1015.6 mb 0.00 in0.0 mm 0.01 in0.3 mm 0.00 in0.0 mm
06:23 PM 31.6°F-0.2°C 21.0°F-6.1°C 70% 8.1 mph SSE13.0 kmh SSE 15.0 mph24.1 kmh 29.97 in1014.9 mb 0.00 in0.0 mm 0.00 in0.0 mm 0.00 in0.0 mm
06:43 PM 31.8°F-0.1°C 21.2°F-6.0°C 70% 7.4 mph SSE11.9 kmh SSE 15.0 mph24.1 kmh 29.96 in1014.6 mb 0.00 in0.0 mm 0.00 in0.0 mm 0.00 in0.0 mm
07:04 PM 31.8°F-0.1°C 21.6°F-5.8°C 71% 8.7 mph SSE14.0 kmh SSE 15.4 mph24.8 kmh 29.95 in1014.2 mb 0.00 in0.0 mm 0.00 in0.0 mm 0.00 in0.0 mm
07:23 PM 32.0°F0.0°C 21.7°F-5.7°C 71% 8.7 mph SSE14.0 kmh SSE 15.0 mph24.1 kmh 29.93 in1013.5 mb 0.00 in0.0 mm 0.00 in0.0 mm 0.00 in0.0 mm
07:45 PM 32.0°F0.0°C 21.7°F-5.7°C 71% 7.4 mph SSE11.9 kmh SSE 13.6 mph21.9 kmh 29.92 in1013.2 mb 0.00 in0.0 mm 0.00 in0.0 mm 0.00 in0.0 mm
08:08 PM 32.0°F0.0°C 22.1°F-5.5°C 72% 7.4 mph SSE11.9 kmh SSE 13.0 mph20.9 kmh 29.90 in1012.5 mb 0.00 in0.0 mm 0.00 in0.0 mm 0.00 in0.0 mm
08:28 PM 32.0°F0.0°C 22.5°F-5.3°C 73% 8.7 mph SSE14.0 kmh SSE 19.9 mph32.0 kmh 29.89 in1012.2 mb 0.00 in0.0 mm 0.00 in0.0 mm 0.00 in0.0 mm
08:49 PM 32.2°F0.1°C 22.6°F-5.2°C 73% 8.7 mph SSE14.0 kmh SSE 16.8 mph27.0 kmh 29.86 in1011.2 mb 0.00 in0.0 mm 0.00 in0.0 mm 0.00 in0.0 mm
09:08 PM 32.2°F0.1°C 22.8°F-5.1°C 74% 8.7 mph SSE14.0 kmh SSE 15.0 mph24.1 kmh 29.85 in1010.8 mb 0.00 in0.0 mm 0.00 in0.0 mm 0.00 in0.0 mm
09:20 PM 32.2°F0.1°C 22.8°F-5.1°C 74% 8.7 mph SSE14.0 kmh SSE 22.4 mph36.0 kmh 29.84 in1010.5 mb 0.00 in0.0 mm 0.00 in0.0 mm 0.00 in0.0 mm
09:40 PM 32.4°F0.2°C 23.4°F-4.8°C 75% 9.4 mph SSE15.1 kmh SSE 18.1 mph29.1 kmh 29.83 in1010.2 mb 0.00 in0.0 mm 0.00 in0.0 mm 0.00 in0.0 mm
10:06 PM 32.5°F0.3°C 23.2°F-4.9°C 74% 6.9 mph SSE11.1 kmh SSE 10.5 mph16.9 kmh 29.83 in1010.2 mb 0.01 in0.3 mm 0.01 in0.3 mm 0.01 in0.3 mm
10:26 PM 32.4°F0.2°C 23.4°F-4.8°C 75% 7.4 mph SSE11.9 kmh SSE 16.8 mph27.0 kmh 29.83 in1010.2 mb 0.01 in0.3 mm 0.01 in0.3 mm 0.02 in0.5 mm
10:47 PM 32.4°F0.2°C 23.4°F-4.8°C 75% 4.3 mph S6.9 kmh S 9.8 mph15.8 kmh 29.82 in1009.8 mb 0.02 in0.5 mm 0.03 in0.8 mm 0.03 in0.8 mm
11:10 PM 32.4°F0.2°C 23.4°F-4.8°C 75% 4.3 mph S6.9 kmh S 11.2 mph18.0 kmh 29.83 in1010.2 mb 0.03 in0.8 mm 0.01 in0.3 mm 0.04 in1.0 mm
11:19 PM 32.4°F0.2°C 23.4°F-4.8°C 75% 4.9 mph SSE7.9 kmh SSE 13.0 mph20.9 kmh 29.82 in1009.8 mb 0.03 in0.8 mm 0.00 in0.0 mm 0.04 in1.0 mm
11:39 PM 32.4°F0.2°C 23.4°F-4.8°C 75% 4.9 mph S7.9 kmh S 11.2 mph18.0 kmh 29.83 in1010.2 mb 0.02 in0.5 mm 0.00 in0.0 mm 0.05 in1.3 mm